Time;durP1;ratioP1;P1;durP2;ratioP2;P2;SDS_P1;SDS_P2;PMS_P1;PMS_P2;Temp;Humidity;BMP_temperature;BMP_pressure;BME280_temperature;BME280_humidity;BME280_pressure;Samples;Min_cycle;Max_cycle;Signal;HPM_P1;HPM_P2
2021/05/17 00:02:17;;;;;;;12.88;9.23;;;;;;;6.55;84.18;97056.78;1727819;83;20990;-75
2021/05/17 00:04:43;;;;;;;13.85;8.10;;;;;;;6.56;83.99;97054.34;1727946;83;20931;-75
2021/05/17 00:07:10;;;;;;;12.37;8.45;;;;;;;6.60;83.90;97042.50;1698782;83;21026;-75
2021/05/17 00:09:36;;;;;;;11.65;7.00;;;;;;;6.55;84.52;97043.32;1727953;83;21007;-75
2021/05/17 00:12:05;;;;;;;14.00;8.38;;;;;;;6.50;85.01;97050.09;1727952;82;21032;-75
2021/05/17 00:14:31;;;;;;;14.30;7.90;;;;;;;6.52;86.47;97048.47;1698865;84;21042;-75
2021/05/17 00:16:57;;;;;;;13.48;7.83;;;;;;;6.54;87.27;97044.41;1727860;83;21398;-75
2021/05/17 00:19:23;;;;;;;13.53;7.35;;;;;;;6.58;86.64;97042.78;1728017;82;21062;-75
2021/05/17 00:21:49;;;;;;;10.48;6.92;;;;;;;6.63;86.90;97037.90;1698781;83;21001;-75
2021/05/17 00:24:17;;;;;;;11.45;6.62;;;;;;;6.69;86.63;97040.30;1728041;83;21104;-75
2021/05/17 00:26:43;;;;;;;10.65;7.40;;;;;;;6.78;86.66;97040.52;1727843;83;21351;-75
2021/05/17 00:29:09;;;;;;;12.47;7.87;;;;;;;6.85;85.45;97034.28;1698795;83;21069;-75
2021/05/17 00:31:37;;;;;;;11.83;8.65;;;;;;;6.91;84.64;97034.48;1727801;83;21082;-75
2021/05/17 00:34:05;;;;;;;12.93;8.28;;;;;;;7.01;85.24;97034.98;1727836;83;21422;-75
2021/05/17 00:36:31;;;;;;;11.30;7.65;;;;;;;7.05;85.92;97029.28;1698646;84;21029;-75
2021/05/17 00:38:59;;;;;;;10.32;7.30;;;;;;;7.09;85.91;97022.23;1727864;83;21084;-75
2021/05/17 00:41:26;;;;;;;11.25;6.40;;;;;;;7.12;85.16;97020.89;1727695;83;20951;-75
2021/05/17 00:43:53;;;;;;;10.63;6.62;;;;;;;7.09;84.45;97010.11;1691536;84;21011;-75
2021/05/17 00:46:19;;;;;;;9.08;6.03;;;;;;;7.08;84.58;97009.86;1711851;83;21098;-75
2021/05/17 00:48:46;;;;;;;12.45;8.10;;;;;;;7.05;84.36;97001.00;1691648;84;21256;-75
2021/05/17 00:51:12;;;;;;;11.40;7.10;;;;;;;7.02;84.45;97009.11;1711843;83;21051;-75
2021/05/17 00:53:38;;;;;;;11.08;6.47;;;;;;;7.01;84.93;97006.70;1691564;84;21455;-75
2021/05/17 00:56:06;;;;;;;11.68;7.50;;;;;;;6.99;85.64;97007.50;1698455;84;21577;-75
2021/05/17 00:58:32;;;;;;;14.25;7.15;;;;;;;7.00;85.08;97008.56;1673021;84;20998;-75
2021/05/17 01:01:00;;;;;;;14.47;7.85;;;;;;;6.99;85.23;97012.34;1698425;84;21823;-75
2021/05/17 01:03:26;;;;;;;10.68;7.15;;;;;;;7.00;85.53;97009.11;1698417;83;20998;-75
2021/05/17 01:05:52;;;;;;;11.03;7.20;;;;;;;7.03;84.93;96998.59;1698628;84;20928;-75
2021/05/17 01:08:25;;;;;;;10.23;6.90;;;;;;;7.03;84.73;97006.67;1698526;83;20975;-75
2021/05/17 01:10:56;;;;;;;8.15;5.15;;;;;;;6.95;85.47;96994.34;1698446;84;20991;-75
2021/05/17 01:13:20;;;;;;;10.53;7.08;;;;;;;6.99;84.18;96999.42;1698281;83;21180;-75
2021/05/17 01:15:49;;;;;;;9.03;6.20;;;;;;;6.97;85.11;96988.13;1698473;84;20998;-75
2021/05/17 01:18:16;;;;;;;9.98;5.67;;;;;;;7.03;85.03;96993.75;1672726;84;21046;-75
2021/05/17 01:20:48;;;;;;;13.65;6.62;;;;;;;7.09;85.78;96988.56;1650111;84;21052;-75
2021/05/17 01:23:58;;;;;;;11.08;5.95;;;;;;;7.14;86.02;96987.73;1698416;83;20962;-75
2021/05/17 01:25:47;;;;;;;10.48;6.55;;;;;;;7.22;85.16;96990.62;1680866;83;21760;-75
2021/05/17 01:28:19;;;;;;;8.68;5.75;;;;;;;7.21;85.10;96993.60;1711730;83;21402;-75
2021/05/17 01:30:41;;;;;;;9.50;6.15;;;;;;;7.23;84.74;96989.53;1690582;84;21078;-75
2021/05/17 01:33:07;;;;;;;10.23;6.00;;;;;;;7.22;85.83;96986.58;1711924;83;21493;-75
2021/05/17 01:35:33;;;;;;;8.38;6.00;;;;;;;7.24;85.19;96988.44;1692016;84;21045;-75
2021/05/17 01:37:59;;;;;;;10.05;6.65;;;;;;;7.21;85.77;96985.52;1711778;83;21084;-75
2021/05/17 01:40:25;;;;;;;10.70;6.10;;;;;;;7.21;85.12;96982.28;1691445;84;20868;-75
2021/05/17 01:42:51;;;;;;;11.80;6.40;;;;;;;7.16;86.59;96986.34;1715815;83;20887;-75
2021/05/17 01:45:18;;;;;;;9.95;6.37;;;;;;;7.21;85.82;96981.48;1691023;84;21545;-75
2021/05/17 01:47:43;;;;;;;11.35;6.60;;;;;;;7.27;84.79;96972.27;1719856;83;21578;-75
2021/05/17 01:50:13;;;;;;;9.70;6.05;;;;;;;7.25;85.16;96967.69;1719751;83;21168;-75
2021/05/17 01:52:39;;;;;;;9.05;6.33;;;;;;;7.25;85.75;96966.34;1690806;84;20987;-75
2021/05/17 01:55:09;;;;;;;11.95;6.20;;;;;;;7.28;85.33;96965.79;1719947;83;21050;-75
2021/05/17 01:57:35;;;;;;;8.78;5.78;;;;;;;7.24;86.54;96958.00;1718715;83;21037;-75
2021/05/17 02:00:01;;;;;;;11.63;5.97;;;;;;;7.28;86.37;96962.55;1690879;84;20982;-75
2021/05/17 02:02:27;;;;;;;8.75;5.40;;;;;;;7.34;86.09;96957.89;1719744;83;21045;-74
2021/05/17 02:04:54;;;;;;;12.40;7.40;;;;;;;7.40;85.11;96951.38;1695332;83;20963;-75
2021/05/17 02:07:21;;;;;;;11.18;8.15;;;;;;;7.42;84.45;96951.09;1690982;84;20962;-75
2021/05/17 02:09:52;;;;;;;9.68;5.95;;;;;;;7.43;84.47;96946.75;1719737;83;21063;-75
2021/05/17 02:12:23;;;;;;;8.23;5.03;;;;;;;7.39;84.37;96943.58;1719717;83;21062;-75
2021/05/17 02:14:54;;;;;;;14.55;6.80;;;;;;;7.40;85.31;96941.94;1691007;84;21601;-75
2021/05/17 02:17:22;;;;;;;9.23;5.40;;;;;;;7.40;88.89;96935.20;1718842;83;20860;-75
2021/05/17 02:19:48;;;;;;;10.53;6.22;;;;;;;7.46;86.76;96930.03;1719746;83;21034;-75
2021/05/17 02:22:22;;;;;;;8.90;5.87;;;;;;;7.43;85.37;96930.58;1690801;84;21050;-75
2021/05/17 02:24:48;;;;;;;13.75;6.50;;;;;;;7.37;86.39;96930.94;1719785;83;21035;-75
2021/05/17 02:27:15;;;;;;;7.55;5.60;;;;;;;7.40;85.58;96934.41;1719793;83;21115;-75
2021/05/17 02:29:43;;;;;;;9.05;5.33;;;;;;;7.39;85.61;96931.45;1690905;84;21074;-75
2021/05/17 02:32:10;;;;;;;8.20;5.35;;;;;;;7.37;85.39;96926.35;1719706;83;21432;-75
2021/05/17 02:34:36;;;;;;;10.28;5.78;;;;;;;7.34;85.54;96912.88;1719873;83;21515;-75
2021/05/17 02:37:03;;;;;;;7.75;5.12;;;;;;;7.31;85.83;96909.42;1690959;84;20962;-75
2021/05/17 02:39:29;;;;;;;8.50;5.60;;;;;;;7.32;85.09;96920.45;1720206;83;21116;-75
2021/05/17 02:41:56;;;;;;;10.40;6.17;;;;;;;7.33;84.84;96923.95;1720324;83;20906;-75
2021/05/17 02:44:23;;;;;;;9.85;5.40;;;;;;;7.27;85.53;96931.30;1682450;83;20951;-75
2021/05/17 02:46:55;;;;;;;10.80;6.17;;;;;;;7.33;84.68;96934.19;1685667;83;21614;-75
2021/05/17 02:49:21;;;;;;;6.72;5.55;;;;;;;7.27;85.00;96934.00;1712011;83;21511;-75
2021/05/17 02:51:49;;;;;;;11.28;6.47;;;;;;;7.20;85.03;96933.52;1691614;84;21122;-75
2021/05/17 02:54:31;;;;;;;7.75;5.80;;;;;;;7.19;85.67;96937.31;1712050;83;21046;-75
2021/05/17 02:57:13;;;;;;;12.03;5.92;;;;;;;7.24;85.35;96933.20;1691602;84;20955;-75
2021/05/17 02:59:56;;;;;;;13.43;7.78;;;;;;;7.31;87.02;96926.14;1711946;83;21039;-75
2021/05/17 03:02:22;;;;;;;11.25;5.83;;;;;;;7.39;86.57;96926.86;1691597;84;20971;-75
2021/05/17 03:04:51;;;;;;;8.25;4.78;;;;;;;7.54;87.43;96918.62;1711957;83;21101;-75
2021/05/17 03:07:17;;;;;;;7.67;5.70;;;;;;;7.62;86.63;96924.73;1712415;83;21001;-75
2021/05/17 03:09:45;;;;;;;9.75;4.90;;;;;;;7.69;86.57;96916.83;1691723;84;20975;-75
2021/05/17 03:12:11;;;;;;;9.33;5.25;;;;;;;7.77;86.13;96925.62;1712039;83;21427;-75
2021/05/17 03:14:40;;;;;;;6.87;4.80;;;;;;;7.78;85.86;96919.17;1691518;84;20974;-75
2021/05/17 03:17:09;;;;;;;15.10;7.33;;;;;;;7.83;85.94;96916.39;1711904;83;21050;-75
2021/05/17 03:19:38;;;;;;;12.85;7.08;;;;;;;7.90;85.99;96919.00;1691628;84;21072;-75
2021/05/17 03:22:04;;;;;;;9.95;7.37;;;;;;;7.95;85.44;96928.94;1685658;83;21539;-75
2021/05/17 03:24:35;;;;;;;9.40;5.30;;;;;;;8.05;85.37;96935.55;1691509;84;20904;-75
2021/05/17 03:27:24;;;;;;;8.23;5.78;;;;;;;8.17;85.02;96937.27;1712017;83;20972;-75
2021/05/17 03:29:50;;;;;;;8.33;4.83;;;;;;;8.29;84.86;96946.30;1689137;83;21346;-75
2021/05/17 03:32:16;;;;;;;7.67;4.53;;;;;;;8.40;84.88;96943.74;1711956;83;20856;-75
2021/05/17 03:34:42;;;;;;;5.37;4.35;;;;;;;8.42;85.90;96948.30;1691658;84;21388;-75
2021/05/17 03:37:08;;;;;;;12.88;4.65;;;;;;;8.54;85.01;96955.15;1711907;83;20923;-75
2021/05/17 03:39:34;;;;;;;12.20;5.67;;;;;;;8.64;84.82;96958.53;1691642;84;20931;-75
2021/05/17 03:42:00;;;;;;;11.53;6.17;;;;;;;8.71;85.86;96954.08;1712050;83;21125;-75
2021/05/17 03:44:25;;;;;;;7.97;5.78;;;;;;;8.80;84.57;96955.57;1685262;84;21465;-75
2021/05/17 03:46:51;;;;;;;11.40;7.80;;;;;;;8.86;85.32;96957.11;1683447;84;20972;-75
2021/05/17 03:49:17;;;;;;;7.90;4.90;;;;;;;8.96;84.77;96953.69;1683167;85;21058;-75
2021/05/17 03:51:43;;;;;;;7.05;5.60;;;;;;;9.05;85.33;96960.58;1683179;84;20943;-75
2021/05/17 03:54:09;;;;;;;7.20;5.17;;;;;;;9.10;84.37;96952.95;1683136;85;21142;-75
2021/05/17 03:56:35;;;;;;;8.73;5.75;;;;;;;9.15;84.33;96951.52;1683024;84;20888;-75
2021/05/17 03:59:02;;;;;;;9.55;4.75;;;;;;;9.20;84.91;96948.72;1683153;85;20983;-75
2021/05/17 04:01:28;;;;;;;9.43;4.17;;;;;;;9.24;85.09;96960.56;1683095;84;20987;-75
2021/05/17 04:03:55;;;;;;;10.93;5.00;;;;;;;9.29;85.12;96955.84;1683208;85;21648;-75
2021/05/17 04:14:24;;;;;;;11.33;5.95;;;;;;;9.62;83.69;96959.87;1683166;85;21531;-75
2021/05/17 04:16:50;;;;;;;19.15;7.08;;;;;;;9.68;83.44;96960.59;1683077;84;20887;-75
2021/05/17 04:19:19;;;;;;;11.28;6.92;;;;;;;9.73;82.52;96959.13;1683645;85;21069;-75
2021/05/17 04:21:44;;;;;;;14.20;7.80;;;;;;;9.71;82.46;96964.83;1682849;84;21015;-75
2021/05/17 04:24:11;;;;;;;18.62;7.85;;;;;;;9.74;82.49;96958.02;1683016;85;21031;-75
2021/05/17 04:26:37;;;;;;;8.43;5.45;;;;;;;9.83;83.01;96962.45;1683059;84;21490;-75
2021/05/17 04:29:03;;;;;;;9.83;4.50;;;;;;;9.93;83.00;96955.23;1683157;85;21480;-75
2021/05/17 04:31:29;;;;;;;5.58;3.92;;;;;;;10.01;82.87;96956.69;1683026;84;21656;-75
2021/05/17 04:33:55;;;;;;;7.42;3.67;;;;;;;10.07;82.87;96947.34;1683114;84;21040;-75
2021/05/17 04:36:21;;;;;;;7.00;3.35;;;;;;;10.07;82.87;96947.34;1683211;85;20908;-75
2021/05/17 04:38:47;;;;;;;10.00;5.97;;;;;;;10.33;82.47;96959.02;1683096;84;21114;-75
2021/05/17 04:41:13;;;;;;;12.18;7.72;;;;;;;10.33;82.47;96959.02;1683111;85;20914;-75
2021/05/17 04:43:39;;;;;;;11.78;5.67;;;;;;;10.40;82.27;96954.00;1685477;84;21259;-75
2021/05/17 04:46:05;;;;;;;7.97;5.40;;;;;;;10.38;82.27;96955.66;1711985;83;20975;-75
2021/05/17 04:48:31;;;;;;;9.98;4.50;;;;;;;10.41;82.09;96963.73;1691666;84;20955;-75
2021/05/17 04:50:57;;;;;;;6.28;4.37;;;;;;;10.40;81.93;96966.19;1711833;83;20971;-75
2021/05/17 04:53:23;;;;;;;14.07;4.00;;;;;;;10.44;82.06;96953.66;1691479;84;20875;-75
2021/05/17 04:55:49;;;;;;;9.00;3.65;;;;;;;10.44;82.06;96953.66;1712038;83;21111;-75
2021/05/17 04:58:15;;;;;;;6.62;3.55;;;;;;;10.50;82.11;96955.69;1691469;84;21493;-75
2021/05/17 05:00:41;;;;;;;7.45;3.55;;;;;;;10.56;81.88;96959.34;1711984;83;20968;-75
2021/05/17 05:03:07;;;;;;;7.78;4.65;;;;;;;10.59;81.86;96961.42;1691590;84;20884;-75
2021/05/17 05:05:33;;;;;;;6.85;3.80;;;;;;;10.67;81.82;96959.91;1711975;83;21407;-75
2021/05/17 05:07:59;;;;;;;8.03;4.67;;;;;;;10.71;81.91;96958.20;1691419;84;21181;-75
2021/05/17 05:10:24;;;;;;;6.53;4.22;;;;;;;10.72;81.84;96959.25;1711847;83;20958;-75
2021/05/17 05:12:50;;;;;;;6.15;4.20;;;;;;;10.83;81.87;96958.45;1691636;84;20908;-75
2021/05/17 05:15:16;;;;;;;10.38;4.90;;;;;;;10.90;81.51;96956.12;1711945;83;21486;-75
2021/05/17 05:17:42;;;;;;;6.85;4.30;;;;;;;10.99;81.18;96961.05;1691537;84;20934;-75
2021/05/17 05:20:09;;;;;;;8.23;5.28;;;;;;;11.02;80.91;96962.33;1711932;83;21301;-75
2021/05/17 05:22:36;;;;;;;9.48;5.10;;;;;;;11.06;80.68;96957.11;1691354;84;21541;-75
2021/05/17 05:25:02;;;;;;;8.35;5.35;;;;;;;11.11;80.23;96959.69;1711891;83;20892;-75
2021/05/17 05:32:53;;;;;;;7.53;3.83;;;;;;;10.96;80.71;96960.87;1684907;83;21661;-75
2021/05/17 05:35:17;;;;;;;6.67;4.85;;;;;;;11.01;80.55;96954.76;1711521;83;21011;-75
2021/05/17 05:37:43;;;;;;;6.72;4.65;;;;;;;10.95;80.57;96956.56;1691610;83;20939;-75
2021/05/17 05:40:32;;;;;;;6.45;4.80;;;;;;;10.96;80.66;96956.81;1711901;83;21426;-75
2021/05/17 05:42:58;;;;;;;10.48;5.90;;;;;;;10.96;80.76;96958.96;1767094;81;21013;-75
2021/05/17 05:45:24;;;;;;;7.53;5.92;;;;;;;10.99;80.54;96956.98;1766014;81;21171;-75
2021/05/17 05:47:49;;;;;;;9.90;6.37;;;;;;;10.95;80.50;96957.92;1766134;81;20901;-75
2021/05/17 05:50:15;;;;;;;9.73;6.42;;;;;;;11.00;80.11;96960.48;1766115;81;20905;-75
2021/05/17 05:52:41;;;;;;;10.58;5.80;;;;;;;11.03;80.27;96961.25;1766206;81;20881;-75
2021/05/17 05:55:08;;;;;;;11.80;7.60;;;;;;;11.11;79.96;96965.11;1766107;81;20968;-75
2021/05/17 05:57:41;;;;;;;7.97;5.10;;;;;;;11.18;80.12;96959.50;1766071;81;21182;-75
2021/05/17 06:00:06;;;;;;;9.40;5.80;;;;;;;11.25;79.75;96962.58;1765560;81;21085;-74
2021/05/17 06:02:32;;;;;;;12.07;6.90;;;;;;;11.35;79.48;96959.37;1766143;81;20909;-74
2021/05/17 06:04:58;;;;;;;9.85;5.87;;;;;;;11.44;79.54;96959.66;1766112;81;21531;-74
2021/05/17 06:07:24;;;;;;;9.30;6.03;;;;;;;11.58;79.47;96952.25;1766136;81;20926;-74
2021/05/17 06:09:50;;;;;;;7.03;4.17;;;;;;;11.69;79.25;96953.33;1766505;81;21270;-74
2021/05/17 06:12:18;;;;;;;8.08;5.40;;;;;;;11.85;78.79;96957.27;1766019;81;21043;-74
2021/05/17 06:14:46;;;;;;;8.93;4.65;;;;;;;11.94;78.69;96949.16;1766128;81;21460;-75
2021/05/17 06:17:13;;;;;;;15.65;6.20;;;;;;;12.15;78.30;96944.77;1740334;81;20977;-75
2021/05/17 06:19:39;;;;;;;16.32;5.10;;;;;;;12.37;78.15;96943.27;1765978;81;20988;-75
2021/05/17 06:22:06;;;;;;;10.70;5.12;;;;;;;12.63;77.59;96939.80;1766018;81;21000;-75
2021/05/17 06:24:33;;;;;;;7.45;4.40;;;;;;;12.93;77.27;96933.41;1740191;81;21032;-75
2021/05/17 06:26:59;;;;;;;13.50;5.03;;;;;;;13.03;76.76;96930.13;1766183;81;20941;-75
2021/05/17 06:29:25;;;;;;;7.90;5.33;;;;;;;13.20;75.71;96924.13;1766112;81;21517;-75
2021/05/17 06:31:51;;;;;;;9.68;5.12;;;;;;;13.25;75.63;96921.81;1766081;81;20981;-75
2021/05/17 06:34:17;;;;;;;7.67;5.22;;;;;;;13.33;75.06;96923.72;1766216;81;20967;-75
2021/05/17 06:36:43;;;;;;;18.42;6.95;;;;;;;13.39;73.91;96931.13;1766011;81;20971;-75
2021/05/17 06:39:12;;;;;;;14.63;7.45;;;;;;;13.47;72.47;96928.95;1765964;81;21036;-75
2021/05/17 06:41:37;;;;;;;10.30;5.83;;;;;;;13.44;72.95;96929.61;1764947;80;21049;-75
2021/05/17 06:44:05;;;;;;;13.18;6.42;;;;;;;13.49;72.51;96928.05;1762427;81;21072;-75
2021/05/17 06:46:31;;;;;;;11.95;7.33;;;;;;;13.50;72.77;96920.13;1763727;80;21435;-74
2021/05/17 06:48:58;;;;;;;21.00;10.30;;;;;;;13.63;72.68;96913.69;1763929;81;21106;-75
2021/05/17 06:51:24;;;;;;;20.02;11.75;;;;;;;13.80;72.55;96914.19;1740014;81;21103;-74
2021/05/17 06:53:54;;;;;;;14.15;9.10;;;;;;;13.92;72.15;96907.47;1763806;80;21054;-75
2021/05/17 06:56:26;;;;;;;9.55;5.50;;;;;;;14.04;71.76;96903.50;1763741;81;21451;-75
2021/05/17 06:58:58;;;;;;;15.43;10.05;;;;;;;14.16;71.46;96908.80;1740718;81;21052;-74
2021/05/17 07:01:26;;;;;;;6.95;4.50;;;;;;;14.39;71.39;96906.81;1762576;81;20943;-74
2021/05/17 07:03:52;;;;;;;5.42;2.95;;;;;;;14.57;70.21;96895.81;1763763;81;20999;-74
2021/05/17 07:06:22;;;;;;;6.17;3.25;;;;;;;14.58;69.88;96894.67;1763861;81;21039;-74
2021/05/17 07:14:12;;;;;;;7.45;3.40;;;;;;;14.58;70.23;96891.95;1763735;81;21020;-74
2021/05/17 07:16:37;;;;;;;8.78;5.15;;;;;;;14.78;69.29;96885.68;1764019;81;21037;-74
2021/05/17 07:19:04;;;;;;;9.35;4.83;;;;;;;14.79;69.45;96889.23;1738843;81;21030;-74
2021/05/17 07:24:14;;;;;;;5.17;3.27;;;;;;;14.80;67.77;96887.53;1762631;81;21107;-75
2021/05/17 07:26:40;;;;;;;7.72;4.90;;;;;;;14.63;68.31;96884.95;1731904;82;20862;-75
2021/05/17 07:29:08;;;;;;;5.37;3.42;;;;;;;14.49;68.66;96877.03;1763969;81;20850;-75
2021/05/17 07:31:34;;;;;;;6.87;4.12;;;;;;;14.45;69.48;96877.47;1739353;80;21386;-74
2021/05/17 07:34:00;;;;;;;9.08;5.30;;;;;;;14.54;69.58;96875.48;1764096;81;21617;-74
2021/05/17 07:36:26;;;;;;;8.03;4.35;;;;;;;14.52;68.39;96872.27;1762534;80;21086;-74
2021/05/17 07:38:52;;;;;;;10.30;3.08;;;;;;;14.33;68.88;96865.89;1732094;82;20881;-74
2021/05/17 07:41:18;;;;;;;3.70;2.42;;;;;;;14.29;69.15;96868.26;1764169;80;21440;-76
2021/05/17 07:43:45;;;;;;;11.35;5.58;;;;;;;14.28;68.50;96868.03;1766094;81;21054;-76
2021/05/17 07:46:11;;;;;;;9.48;5.75;;;;;;;14.16;69.36;96870.66;1766249;81;20993;-75
2021/05/17 07:49:04;;;;;;;5.22;3.70;;;;;;;14.18;69.84;96865.67;1766206;81;21846;-75
2021/05/17 07:51:05;;;;;;;4.22;2.40;;;;;;;14.25;69.53;96868.67;1737141;81;21449;-75
2021/05/17 07:53:31;;;;;;;6.33;3.67;;;;;;;14.22;69.93;96857.88;1766213;81;20950;-75
2021/05/17 07:55:57;;;;;;;7.22;4.78;;;;;;;14.29;70.09;96853.27;1766222;81;20841;-75
2021/05/17 07:58:23;;;;;;;7.47;5.50;;;;;;;14.35;69.60;96848.63;1766324;81;20992;-76
2021/05/17 08:00:49;;;;;;;9.80;6.25;;;;;;;14.31;69.49;96847.72;1766118;81;21850;-76
2021/05/17 08:03:15;;;;;;;7.20;5.37;;;;;;;14.29;69.62;96851.34;1766095;81;21067;-76
2021/05/17 08:05:41;;;;;;;5.70;4.65;;;;;;;14.21;69.92;96852.77;1766177;81;20918;-75
2021/05/17 08:08:07;;;;;;;8.88;6.58;;;;;;;14.21;69.81;96853.56;1766206;81;20956;-75
2021/05/17 08:10:34;;;;;;;6.60;4.60;;;;;;;14.21;70.24;96855.48;1766178;81;20897;-75
2021/05/17 08:13:00;;;;;;;7.95;3.75;;;;;;;14.25;69.20;96857.20;1766157;81;20976;-75
2021/05/17 08:15:26;;;;;;;7.65;3.67;;;;;;;14.09;69.68;96861.07;1766140;81;21467;-75
2021/05/17 08:17:52;;;;;;;7.00;4.00;;;;;;;14.14;69.39;96864.75;1766282;81;21066;-75
2021/05/17 08:20:18;;;;;;;6.83;4.20;;;;;;;14.03;69.83;96857.53;1766222;81;20936;-75
2021/05/17 08:22:44;;;;;;;9.98;5.28;;;;;;;14.09;70.10;96859.71;1766109;81;20960;-75
2021/05/17 08:25:11;;;;;;;13.58;5.28;;;;;;;14.18;70.31;96862.38;1766055;81;21138;-75
2021/05/17 08:27:37;;;;;;;6.55;4.40;;;;;;;14.29;70.31;96856.00;1765999;81;20897;-75
2021/05/17 08:30:04;;;;;;;9.30;4.00;;;;;;;14.32;70.06;96857.48;1766249;81;20945;-75
2021/05/17 08:32:30;;;;;;;9.70;3.60;;;;;;;14.32;70.06;96859.41;1766092;81;21386;-75
2021/05/17 08:34:57;;;;;;;7.92;3.83;;;;;;;14.39;69.60;96861.84;1766200;81;21006;-75
2021/05/17 08:37:23;;;;;;;7.85;4.05;;;;;;;14.40;69.42;96859.34;1766092;81;21243;-75
2021/05/17 08:39:49;;;;;;;7.95;4.17;;;;;;;14.45;69.81;96858.39;1766181;81;21004;-75
2021/05/17 08:42:15;;;;;;;9.55;4.95;;;;;;;14.56;69.34;96860.94;1765127;80;20967;-75
2021/05/17 08:44:41;;;;;;;33.58;27.45;;;;;;;14.64;69.01;96855.19;1762522;81;21529;-74
2021/05/17 08:47:07;;;;;;;23.35;10.53;;;;;;;14.79;69.04;96860.03;1763879;80;20861;-75
2021/05/17 08:49:33;;;;;;;19.62;10.43;;;;;;;14.96;68.31;96864.53;1764068;81;20968;-74
2021/05/17 08:51:58;;;;;;;21.20;18.92;;;;;;;14.93;69.08;96859.16;1763962;80;20856;-74
2021/05/17 08:54:24;;;;;;;11.78;10.58;;;;;;;15.08;69.37;96855.58;1763938;81;20959;-75
2021/05/17 08:56:50;;;;;;;9.75;5.58;;;;;;;15.22;69.59;96854.72;1763933;80;20865;-74
2021/05/17 08:59:19;;;;;;;10.85;4.58;;;;;;;15.34;69.69;96853.36;1763894;81;20971;-74
2021/05/17 09:01:44;;;;;;;16.00;11.15;;;;;;;15.40;69.71;96860.20;1764061;80;21090;-74
2021/05/17 09:04:12;;;;;;;74.87;66.72;;;;;;;15.43;69.62;96858.72;1739926;81;21075;-75
2021/05/17 09:06:48;;;;;;;15.85;14.00;;;;;;;15.42;69.67;96862.59;1764029;80;20996;-75
2021/05/17 09:09:36;;;;;;;8.33;6.03;;;;;;;15.37;69.70;96864.96;1764043;81;21019;-74
2021/05/17 09:12:05;;;;;;;8.73;3.65;;;;;;;15.39;69.78;96870.90;1763833;80;20991;-75
2021/05/17 09:14:32;;;;;;;6.58;4.17;;;;;;;15.40;69.65;96867.03;1762276;81;21129;-75
2021/05/17 09:17:02;;;;;;;10.53;8.15;;;;;;;15.42;69.71;96863.39;1763713;80;20911;-75
2021/05/17 09:19:29;;;;;;;6.92;4.62;;;;;;;15.43;69.64;96864.19;1763346;81;21012;-75
2021/05/17 09:22:07;;;;;;;7.65;5.30;;;;;;;15.40;69.68;96859.41;1763789;80;21007;-75
2021/05/17 09:24:52;;;;;;;6.83;4.40;;;;;;;15.32;70.05;96862.47;1763923;81;21471;-74
2021/05/17 09:27:23;;;;;;;4.60;3.62;;;;;;;15.33;70.69;96862.69;1763854;80;21595;-74
2021/05/17 09:29:52;;;;;;;7.62;5.12;;;;;;;15.36;70.59;96862.58;1763789;81;21020;-75
2021/05/17 09:32:26;;;;;;;10.43;5.33;;;;;;;15.36;70.43;96867.47;1763955;80;21043;-75
2021/05/17 09:35:07;;;;;;;6.42;5.55;;;;;;;15.14;70.44;96865.95;1763968;81;21028;-74
2021/05/17 09:37:48;;;;;;;8.80;6.60;;;;;;;15.10;70.74;96862.28;1763825;80;20995;-75
2021/05/17 09:40:30;;;;;;;10.90;8.70;;;;;;;15.06;70.81;96860.58;1763850;81;21762;-74
2021/05/17 09:43:08;;;;;;;13.98;4.22;;;;;;;15.05;70.87;96858.42;1763437;80;21066;-74
2021/05/17 09:45:40;;;;;;;20.30;6.25;;;;;;;15.03;70.63;96855.78;1764747;81;21064;-74
2021/05/17 09:48:12;;;;;;;16.85;6.05;;;;;;;14.95;70.63;96862.91;1765958;80;21082;-73
2021/05/17 09:51:04;;;;;;;7.70;4.03;;;;;;;14.95;71.16;96854.73;1766144;81;21026;-74
2021/05/17 09:53:39;;;;;;;13.15;6.20;;;;;;;15.05;71.30;96852.17;1766044;80;21015;-74
2021/05/17 09:56:18;;;;;;;47.85;39.13;;;;;;;15.05;71.34;96846.14;1765993;81;20951;-74
2021/05/17 09:58:46;;;;;;;5.92;3.92;;;;;;;15.16;71.46;96850.59;1740214;81;21063;-74
2021/05/17 10:01:21;;;;;;;54.97;10.93;;;;;;;15.26;71.42;96853.46;1766304;81;21024;-75
2021/05/17 10:03:53;;;;;;;212.20;26.52;;;;;;;15.15;71.07;96847.64;1763866;81;21055;-74
2021/05/17 10:06:23;;;;;;;208.40;25.10;;;;;;;15.14;71.15;96851.52;1765998;81;21558;-74
2021/05/17 10:08:49;;;;;;;206.20;27.15;;;;;;;15.11;70.59;96854.33;1765716;80;20940;-75
2021/05/17 10:11:16;;;;;;;13.93;5.55;;;;;;;15.12;70.54;96845.00;1766069;81;20915;-75
2021/05/17 10:13:42;;;;;;;114.65;16.45;;;;;;;15.09;69.89;96845.69;1765957;80;20978;-75
2021/05/17 10:16:10;;;;;;;14.80;7.25;;;;;;;15.12;70.17;96846.37;1766495;81;20892;-75
2021/05/17 10:18:37;;;;;;;600.15;84.70;;;;;;;15.03;68.31;96842.14;1766077;80;21127;-75
2021/05/17 10:21:09;;;;;;;218.95;31.20;;;;;;;14.98;68.79;96841.00;1765952;81;21035;-75
2021/05/17 10:23:41;;;;;;;31.82;7.12;;;;;;;15.07;69.12;96835.69;1765913;80;20966;-74
2021/05/17 10:26:11;;;;;;;139.30;18.87;;;;;;;15.01;68.45;96841.69;1765096;81;21047;-75
2021/05/17 10:28:38;;;;;;;22.02;6.65;;;;;;;15.03;68.83;96834.75;1740244;81;21447;-74
2021/05/17 10:31:14;;;;;;;19.70;6.58;;;;;;;15.02;68.54;96837.25;1765877;81;21246;-74
2021/05/17 10:33:43;;;;;;;9.83;4.75;;;;;;;15.06;68.54;96836.03;1765225;80;20884;-75
2021/05/17 10:36:09;;;;;;;;;;;;;;;14.95;68.65;96834.27;1768611;81;20995;-75
2021/05/17 10:38:45;;;;;;;284.75;35.85;;;;;;;14.89;69.42;96835.07;1766044;80;20224;-75
2021/05/17 10:41:23;;;;;;;134.57;14.73;;;;;;;15.00;69.39;96829.19;1740374;81;21031;-75
2021/05/17 10:44:08;;;;;;;280.12;38.33;;;;;;;15.07;69.53;96828.86;1760683;80;21043;-74
2021/05/17 10:46:42;;;;;;;247.30;34.85;;;;;;;15.14;69.77;96826.95;1757735;80;21701;-74
2021/05/17 10:49:28;;;;;;;168.75;24.63;;;;;;;15.19;69.67;96825.36;1758997;81;20936;-74
2021/05/17 10:52:10;;;;;;;299.37;41.48;;;;;;;15.23;69.32;96828.45;1702821;83;21418;-75
2021/05/17 10:54:46;;;;;;;451.85;66.10;;;;;;;15.25;69.13;96825.38;1732291;82;20994;-75
2021/05/17 10:57:27;;;;;;;341.05;43.50;;;;;;;15.22;69.36;96822.77;1704277;84;20997;-74
2021/05/17 11:02:43;;;;;;;15.83;4.40;;;;;;;15.23;69.68;96825.72;1759239;80;20829;-75
2021/05/17 11:05:20;;;;;;;6.85;2.95;;;;;;;15.22;70.00;96836.98;1738057;81;21099;-75
2021/05/17 11:07:56;;;;;;;12.03;4.03;;;;;;;15.07;71.04;96829.44;1710728;82;21062;-75
2021/05/17 11:10:40;;;;;;;6.37;2.60;;;;;;;14.98;71.33;96832.82;1732036;82;21744;-74
2021/05/17 11:13:18;;;;;;;4.37;3.15;;;;;;;14.81;70.84;96833.22;1713626;82;21473;-76
2021/05/17 11:15:56;;;;;;;7.40;2.55;;;;;;;14.67;71.74;96834.86;1732337;82;21486;-74
2021/05/17 11:18:30;;;;;;;7.95;2.67;;;;;;;14.65;71.30;96833.61;1739108;81;20983;-75
2021/05/17 11:20:59;;;;;;;6.47;3.02;;;;;;;14.63;71.75;96830.42;1759191;81;20948;-75
2021/05/17 11:23:33;;;;;;;5.30;3.12;;;;;;;14.66;71.83;96819.64;1759167;80;21136;-75
2021/05/17 11:26:03;;;;;;;4.00;2.50;;;;;;;14.62;73.61;96824.75;1759046;81;21484;-76
2021/05/17 11:28:41;;;;;;;9.88;3.87;;;;;;;14.45;73.57;96823.50;1733599;82;21438;-76
2021/05/17 11:31:16;;;;;;;10.65;4.00;;;;;;;14.36;73.70;96831.18;1732155;82;21046;-75
2021/05/17 11:33:59;;;;;;;17.25;3.90;;;;;;;14.25;74.91;96825.08;1732058;82;20935;-75
2021/05/17 11:36:33;;;;;;;10.28;4.72;;;;;;;14.24;75.91;96827.01;1732049;82;21173;-74
2021/05/17 11:39:14;;;;;;;10.70;6.62;;;;;;;14.18;78.83;96820.16;1732190;82;20988;-77
2021/05/17 11:42:02;;;;;;;9.43;6.00;;;;;;;14.09;79.38;96823.50;1732126;82;20978;-75
2021/05/17 11:44:35;;;;;;;8.70;4.30;;;;;;;13.95;80.20;96823.77;1720268;82;21471;-75
2021/05/17 11:47:11;;;;;;;6.58;3.92;;;;;;;13.95;78.22;96829.78;1732003;82;21374;-75
2021/05/17 11:49:39;;;;;;;10.88;4.37;;;;;;;13.95;78.78;96829.78;1731817;82;21066;-76
2021/05/17 11:52:11;;;;;;;5.35;3.98;;;;;;;13.97;78.72;96830.25;1732066;82;21485;-75
2021/05/17 11:54:50;;;;;;;5.92;3.75;;;;;;;13.94;79.84;96822.75;1732525;82;21006;-76
2021/05/17 11:57:19;;;;;;;5.78;3.83;;;;;;;14.03;78.36;96816.11;1751731;82;21013;-75
2021/05/17 11:59:49;;;;;;;;;;;;;;;14.16;79.11;96811.52;1734597;82;21027;-75
2021/05/17 12:02:14;;;;;;;7.80;3.75;;;;;;;14.16;80.33;96814.25;1731706;82;21130;-74
2021/05/17 12:04:42;;;;;;;6.00;3.77;;;;;;;14.28;78.69;96813.53;1732019;82;21017;-75